Briefing drone pour La talaudiere

Rechercher une autre localisation

Conditions de vol :


Nous sommes le : Dimanche 25 septembre 2022
Il est 23:10 UTC (01:10 LT)

Lever de soleil : 05:06 UTC (07:06 LT)
Coucher de soleil : 18:01 UTC (20:01 LT)

Météo

L'essentiel des conditions de vol

VIGILANCE MÉTÉO FRANCE - Loire (42)
Vigilance Jaune : Orages
CARTE TEMSI
CARTES DES FRONTS
METAR de LFMH
LFMH 242300Z AUTO 03002KT 9999 BKN049/// OVC056/// ///CB 13/11 Q1014

Date d'émission: 24/09/2022
Heure d'émission: 23:00 UTC
Vent: 030° pour 2 KT (4 km/h)
Visibilité horizontale: > 10 km
Plafond :
- Nuages morcelés à 4900ft (1494m)
- Couvert à 5600ft (1707m)
Température: 13 °C
Point de rosée: 11 °C
Humidité: 88%
Pression (QNH): 1014 hPa
TAF de LFMH
LFMH 161901Z 1619/1712 CNL

Conditions prévues :

Heure d'émission : Bulletin éffectué le 16 à 19:00 UTC
Prévision : Valide du 16 a 19:00 UTC au 17 a 12:00 UTC
Nuages : à 0ft (0 m)
WEBCAM POUR LA TALAUDIERE

Réglementation

Voler en sécurité

CARTES AERONAUTIQUE 1/500.000
CARTE AZBA (Reseau basse altitude)
CARTES VAC (LFMH)
SUP AIP




Chargement des AIP...
NOTAM (LA TALAUDIERE + Terrain à proximité / FIR )




Chargement des NOTAMS...
CONTACT PREFECTURE 42


Avertissement : Les données mises à disposition sont indicatives. Oxygène Drone ne pourra être tenu responsable de dégâts causés aux biens et aux personnes.